createdAt,value
2023-05-19T00:00:05.407Z,7.40
2023-05-19T00:00:35.059Z,7.76
2023-05-19T00:00:51.645Z,8.61
2023-05-19T00:01:22.749Z,7.55
2023-05-19T00:01:44.101Z,7.48
2023-05-19T00:02:11.651Z,7.63
2023-05-19T00:02:38.478Z,7.93
2023-05-19T00:02:58.835Z,7.76
2023-05-19T00:03:31.629Z,7.84
2023-05-19T00:04:03.037Z,7.68
2023-05-19T00:04:34.884Z,7.76
2023-05-19T00:04:51.281Z,7.88
2023-05-19T00:05:23.137Z,7.88
2023-05-19T00:05:44.161Z,8.72
2023-05-19T00:06:11.156Z,7.88
2023-05-19T00:06:36.963Z,7.68
2023-05-19T00:06:59.221Z,7.97
2023-05-19T00:07:31.356Z,7.97
2023-05-19T00:08:03.202Z,7.76
2023-05-19T00:08:34.743Z,7.60
2023-05-19T00:08:51.234Z,7.76
2023-05-19T00:09:22.490Z,7.88
2023-05-19T00:09:44.076Z,8.03
2023-05-19T00:10:12.269Z,7.63
2023-05-19T00:10:37.039Z,7.40
2023-05-19T00:10:59.540Z,7.76
2023-05-19T00:11:31.324Z,7.76
2023-05-19T00:12:02.906Z,8.61
2023-05-19T00:12:34.837Z,7.84
2023-05-19T00:12:53.784Z,7.76
2023-05-19T00:13:22.533Z,7.76
2023-05-19T00:13:44.080Z,8.03
2023-05-19T00:14:10.972Z,8.61
2023-05-19T00:14:37.248Z,8.61
2023-05-19T00:14:58.687Z,8.03
2023-05-19T00:15:32.294Z,7.76
2023-05-19T00:16:03.038Z,8.61
2023-05-19T00:16:34.806Z,8.61
2023-05-19T00:16:51.178Z,8.61
2023-05-19T00:17:22.527Z,8.61
2023-05-19T00:17:44.128Z,7.76
2023-05-19T00:18:11.187Z,8.03
2023-05-19T00:18:37.049Z,7.84
2023-05-19T00:18:59.314Z,7.76
2023-05-19T00:19:31.593Z,7.93
2023-05-19T00:20:05.135Z,7.76
2023-05-19T00:20:34.779Z,8.61
2023-05-19T00:20:51.706Z,7.84
2023-05-19T00:21:22.725Z,7.84
2023-05-19T00:21:44.006Z,7.84
2023-05-19T00:22:11.028Z,8.61
2023-05-19T00:22:37.155Z,7.55
2023-05-19T00:22:58.576Z,8.61
2023-05-19T00:23:31.467Z,8.61
2023-05-19T00:24:02.834Z,7.76
2023-05-19T00:24:34.694Z,7.76
2023-05-19T00:24:51.267Z,7.76
2023-05-19T00:25:23.005Z,8.61
2023-05-19T00:25:44.124Z,8.61
2023-05-19T00:26:11.163Z,7.40
2023-05-19T00:26:37.278Z,7.40
2023-05-19T00:26:58.570Z,8.61
2023-05-19T00:27:31.452Z,7.40
2023-05-19T00:28:02.831Z,7.76
2023-05-19T00:28:35.488Z,8.61
2023-05-19T00:29:06.769Z,7.93
2023-05-19T00:29:38.650Z,7.84
2023-05-19T00:30:12.943Z,7.84
2023-05-19T00:30:37.057Z,7.48
2023-05-19T00:30:59.365Z,7.84
2023-05-19T00:31:31.380Z,7.63
2023-05-19T00:32:03.008Z,8.61
2023-05-19T00:32:34.682Z,7.93
2023-05-19T00:32:51.266Z,7.84
2023-05-19T00:33:22.513Z,8.61
2023-05-19T00:33:43.951Z,8.50
2023-05-19T00:34:11.481Z,7.50
2023-05-19T00:34:37.461Z,7.35
2023-05-19T00:34:58.594Z,7.63
2023-05-19T00:35:31.835Z,7.90
2023-05-19T00:36:02.962Z,7.90
2023-05-19T00:36:35.167Z,8.50
2023-05-19T00:36:51.836Z,8.50
2023-05-19T00:37:22.718Z,8.50
2023-05-19T00:37:44.269Z,8.50
2023-05-19T00:38:11.198Z,7.72
2023-05-19T00:38:37.415Z,7.90
2023-05-19T00:38:58.550Z,8.50
2023-05-19T00:39:31.440Z,7.72
2023-05-19T00:40:04.639Z,7.90
2023-05-19T00:40:34.901Z,7.42
2023-05-19T00:41:06.772Z,7.90
2023-05-19T00:41:38.637Z,7.42
2023-05-19T00:42:11.175Z,7.63
2023-05-19T00:42:37.224Z,7.63
2023-05-19T00:42:58.898Z,7.90
2023-05-19T00:43:31.265Z,7.63
2023-05-19T00:44:03.135Z,7.50
2023-05-19T00:44:34.710Z,8.50
2023-05-19T00:44:51.143Z,7.50
2023-05-19T00:45:23.542Z,7.72
2023-05-19T00:45:44.254Z,7.63
2023-05-19T00:46:11.199Z,7.63
2023-05-19T00:46:37.117Z,7.27
2023-05-19T00:46:58.800Z,6.97
2023-05-19T00:47:31.468Z,7.27
2023-05-19T00:48:02.929Z,7.42
2023-05-19T00:48:34.650Z,7.72
2023-05-19T00:48:51.338Z,7.63
2023-05-19T00:49:22.642Z,7.10
2023-05-19T00:49:44.133Z,7.20
2023-05-19T00:50:11.602Z,7.42
2023-05-19T00:50:37.220Z,7.27
2023-05-19T00:50:59.013Z,7.50
2023-05-19T00:51:31.410Z,7.10
2023-05-19T00:52:02.824Z,7.90
2023-05-19T00:52:35.000Z,7.72
2023-05-19T00:52:51.228Z,7.77
2023-05-19T00:53:23.010Z,7.67
2023-05-19T00:53:44.025Z,8.38
2023-05-19T00:54:11.356Z,8.38
2023-05-19T00:54:37.204Z,8.38
2023-05-19T00:54:58.653Z,7.36
2023-05-19T00:55:31.779Z,7.72
2023-05-19T00:56:02.903Z,8.50
2023-05-19T00:56:34.867Z,7.63
2023-05-19T00:57:06.754Z,7.35
2023-05-19T00:57:38.543Z,7.90
2023-05-19T00:58:11.286Z,8.50
2023-05-19T00:58:37.343Z,8.50
2023-05-19T00:58:58.775Z,7.27
2023-05-19T00:59:31.359Z,7.63
2023-05-19T01:00:05.436Z,7.90
2023-05-19T01:00:35.238Z,8.50
2023-05-19T01:00:51.677Z,8.50
2023-05-19T01:01:23.085Z,7.72
2023-05-19T01:01:44.237Z,7.90
2023-05-19T01:02:11.139Z,7.72
2023-05-19T01:03:15.968Z,7.42
2023-05-19T01:03:31.714Z,7.20
2023-05-19T01:04:03.078Z,6.97
2023-05-19T01:04:34.790Z,7.63
2023-05-19T01:04:51.725Z,7.42
2023-05-19T01:05:23.011Z,7.35
2023-05-19T01:05:44.063Z,8.50
2023-05-19T01:06:11.126Z,8.50
2023-05-19T01:06:37.334Z,7.72
2023-05-19T01:06:58.802Z,7.90
2023-05-19T01:07:31.587Z,6.91
2023-05-19T01:08:03.390Z,7.63
2023-05-19T01:08:34.641Z,7.20
2023-05-19T01:08:51.210Z,7.72
2023-05-19T01:09:22.579Z,8.50
2023-05-19T01:09:44.018Z,8.50
2023-05-19T01:10:11.308Z,7.50
2023-05-19T01:10:37.038Z,7.35
2023-05-19T01:10:59.652Z,7.35
2023-05-19T01:11:31.788Z,7.50
2023-05-19T01:12:02.679Z,7.35
2023-05-19T01:12:35.414Z,7.35
2023-05-19T01:13:06.619Z,7.27
2023-05-19T01:13:41.831Z,7.84
2023-05-19T01:14:10.950Z,7.76
2023-05-19T01:14:37.025Z,8.61
2023-05-19T01:14:58.442Z,8.61
2023-05-19T01:15:31.323Z,7.84
2023-05-19T01:16:01.854Z,8.61
2023-05-19T01:16:33.564Z,8.61
2023-05-19T01:16:49.640Z,8.61
2023-05-19T01:17:21.587Z,8.61
2023-05-19T01:17:43.173Z,7.40
2023-05-19T01:18:10.074Z,8.61
2023-05-19T01:18:35.673Z,8.61
2023-05-19T01:18:57.874Z,7.90
2023-05-19T01:19:30.259Z,8.50
2023-05-19T01:20:02.372Z,7.81
2023-05-19T01:20:33.475Z,7.90
2023-05-19T01:20:50.165Z,7.63
2023-05-19T01:21:21.834Z,7.63
2023-05-19T01:21:42.778Z,7.35
2023-05-19T01:22:10.036Z,7.81
2023-05-19T01:22:35.675Z,7.50
2023-05-19T01:22:57.222Z,7.50
2023-05-19T01:23:29.932Z,8.50
2023-05-19T01:24:01.626Z,7.42
2023-05-19T01:24:33.324Z,7.72
2023-05-19T01:24:50.276Z,7.72
2023-05-19T01:25:21.820Z,7.27
2023-05-19T01:25:43.406Z,7.27
2023-05-19T01:26:10.297Z,7.90
2023-05-19T01:26:36.232Z,7.93
2023-05-19T01:26:57.635Z,7.40
2023-05-19T01:27:29.960Z,7.55
2023-05-19T01:28:01.673Z,7.84
2023-05-19T01:28:33.670Z,7.84
2023-05-19T01:28:50.383Z,7.76
2023-05-19T01:29:21.341Z,8.03
2023-05-19T01:29:43.136Z,7.76
2023-05-19T01:30:11.269Z,7.33
2023-05-19T01:30:35.696Z,8.03
2023-05-19T01:30:58.027Z,7.76
2023-05-19T01:31:29.695Z,8.61
2023-05-19T01:32:01.705Z,8.61
2023-05-19T01:32:33.574Z,8.61
2023-05-19T01:32:49.634Z,8.61
2023-05-19T01:33:21.581Z,8.61
2023-05-19T01:33:43.049Z,8.61
2023-05-19T01:34:10.030Z,8.03
2023-05-19T01:34:35.858Z,8.03
2023-05-19T01:34:57.905Z,7.93
2023-05-19T01:35:30.656Z,8.03
2023-05-19T01:36:01.708Z,8.61
2023-05-19T01:36:33.722Z,8.61
2023-05-19T01:36:50.360Z,8.61
2023-05-19T01:37:21.492Z,8.61
2023-05-19T01:37:42.838Z,7.90
2023-05-19T01:38:09.954Z,7.27
2023-05-19T01:38:37.226Z,8.50
2023-05-19T01:38:57.917Z,7.50
2023-05-19T01:39:30.696Z,8.50
2023-05-19T01:40:02.881Z,7.81
2023-05-19T01:40:33.877Z,8.50
2023-05-19T01:41:00.742Z,7.63
2023-05-19T01:41:27.197Z,7.63
2023-05-19T01:41:46.429Z,7.27
2023-05-19T01:42:12.519Z,7.63
2023-05-19T01:42:38.159Z,7.03
2023-05-19T01:42:59.505Z,7.42
2023-05-19T01:43:32.094Z,7.42
2023-05-19T01:44:02.714Z,8.03
2023-05-19T01:44:34.788Z,7.42
2023-05-19T01:44:51.280Z,7.03
2023-05-19T01:45:23.453Z,7.16
2023-05-19T01:45:44.251Z,8.03
2023-05-19T01:46:11.119Z,7.33
2023-05-19T01:46:37.123Z,7.76
2023-05-19T01:46:58.840Z,7.76
2023-05-19T01:47:31.880Z,7.23
2023-05-19T01:48:03.020Z,7.84
2023-05-19T01:48:34.800Z,7.10
2023-05-19T01:48:51.092Z,7.16
2023-05-19T01:49:22.668Z,7.40
2023-05-19T01:49:44.119Z,7.76
2023-05-19T01:50:11.638Z,7.55
2023-05-19T01:50:37.099Z,7.40
2023-05-19T01:50:59.186Z,7.55
2023-05-19T01:51:32.328Z,7.88
2023-05-19T01:52:02.807Z,7.68
2023-05-19T01:52:34.820Z,7.88
2023-05-19T01:52:51.088Z,7.60
2023-05-19T01:53:22.728Z,7.23
2023-05-19T01:53:44.042Z,7.23
2023-05-19T01:54:11.069Z,7.53
2023-05-19T01:54:37.385Z,7.76
2023-05-19T01:54:58.732Z,7.97
2023-05-19T01:55:32.569Z,7.60
2023-05-19T01:56:02.732Z,7.88
2023-05-19T01:56:35.201Z,8.16
2023-05-19T01:56:51.928Z,7.84
2023-05-19T01:57:22.550Z,8.72
2023-05-19T01:57:44.122Z,7.88
2023-05-19T01:58:11.067Z,7.88
2023-05-19T01:58:37.525Z,7.36
2023-05-19T01:58:58.680Z,7.68
2023-05-19T01:59:31.646Z,8.61
2023-05-19T02:00:05.278Z,7.76
2023-05-19T02:00:35.242Z,7.93
2023-05-19T02:00:51.507Z,7.55
2023-05-19T02:01:22.723Z,7.76
2023-05-19T02:01:44.138Z,7.76
2023-05-19T02:02:11.068Z,7.48
2023-05-19T02:02:37.823Z,8.03
2023-05-19T02:02:58.660Z,8.61
2023-05-19T02:03:31.695Z,7.93
2023-05-19T02:04:02.654Z,7.40
2023-05-19T02:04:34.701Z,7.93
2023-05-19T02:04:51.010Z,7.76
2023-05-19T02:05:22.941Z,8.61
2023-05-19T02:05:44.108Z,8.03
2023-05-19T02:06:11.072Z,7.40
2023-05-19T02:06:37.145Z,7.63
2023-05-19T02:06:58.807Z,7.55
2023-05-19T02:07:31.793Z,7.55
2023-05-19T02:08:02.746Z,8.61
2023-05-19T02:08:34.706Z,7.55
2023-05-19T02:08:51.225Z,7.40
2023-05-19T02:09:22.708Z,7.48
2023-05-19T02:09:44.159Z,7.55
2023-05-19T02:10:11.465Z,8.61
2023-05-19T02:10:37.301Z,7.40
2023-05-19T02:10:59.385Z,8.61
2023-05-19T02:11:31.185Z,7.63
2023-05-19T02:12:02.732Z,8.61
2023-05-19T02:12:34.671Z,8.61
2023-05-19T02:12:51.116Z,8.61
2023-05-19T02:13:22.556Z,8.61
2023-05-19T02:13:44.601Z,8.61
2023-05-19T02:14:11.084Z,7.93
2023-05-19T02:14:36.971Z,8.61
2023-05-19T02:14:58.993Z,7.81
2023-05-19T02:15:32.533Z,8.50
2023-05-19T02:16:02.895Z,7.72
2023-05-19T02:16:34.715Z,8.50
2023-05-19T02:16:51.005Z,8.50
2023-05-19T02:17:22.744Z,8.50
2023-05-19T02:17:44.221Z,8.50
2023-05-19T02:18:11.116Z,8.50
2023-05-19T02:18:37.306Z,8.50
2023-05-19T02:18:58.969Z,8.50
2023-05-19T02:19:31.897Z,8.50
2023-05-19T02:20:04.143Z,8.50
2023-05-19T02:20:34.995Z,7.72
2023-05-19T02:20:51.597Z,8.38
2023-05-19T02:21:22.767Z,8.38
2023-05-19T02:21:44.024Z,7.77
2023-05-19T02:22:11.258Z,8.38
2023-05-19T02:22:37.044Z,7.58
2023-05-19T02:22:58.740Z,8.38
2023-05-19T02:23:31.899Z,8.38
2023-05-19T02:24:02.886Z,8.38
2023-05-19T02:24:34.806Z,8.38
2023-05-19T02:24:51.490Z,8.38
2023-05-19T02:25:23.068Z,8.38
2023-05-19T02:25:44.137Z,8.38
2023-05-19T02:26:11.489Z,8.38
2023-05-19T02:26:37.127Z,8.50
2023-05-19T02:26:58.841Z,8.38
2023-05-19T02:27:31.582Z,8.38
2023-05-19T02:28:03.017Z,8.38
2023-05-19T02:28:34.654Z,8.38
2023-05-19T02:28:51.497Z,8.38
2023-05-19T02:29:22.783Z,8.38
2023-05-19T02:29:43.998Z,8.38
2023-05-19T02:30:11.918Z,8.38
2023-05-19T02:30:37.303Z,8.38
2023-05-19T02:30:59.181Z,8.38
2023-05-19T02:31:31.557Z,8.38
2023-05-19T02:32:02.628Z,8.38
2023-05-19T02:32:34.674Z,8.38
2023-05-19T02:32:51.048Z,8.38
2023-05-19T02:33:22.456Z,8.38
2023-05-19T02:33:44.048Z,8.27
2023-05-19T02:34:11.486Z,8.27
2023-05-19T02:34:36.930Z,8.27
2023-05-19T02:34:58.626Z,8.27
2023-05-19T02:35:32.191Z,8.27
2023-05-19T02:36:02.705Z,8.27
2023-05-19T02:36:34.653Z,8.27
2023-05-19T02:36:51.022Z,8.27
2023-05-19T02:37:22.775Z,8.27
2023-05-19T02:37:44.021Z,8.27
2023-05-19T02:38:10.953Z,8.27
2023-05-19T02:38:36.943Z,8.27
2023-05-19T02:38:58.589Z,8.27
2023-05-19T02:39:31.591Z,8.27
2023-05-19T02:40:03.938Z,8.27
2023-05-19T02:40:34.839Z,8.27
2023-05-19T02:40:51.359Z,8.27
2023-05-19T02:41:22.542Z,8.27
2023-05-19T02:41:44.023Z,8.27
2023-05-19T02:42:11.101Z,8.27
2023-05-19T02:42:36.993Z,8.27
2023-05-19T02:42:58.988Z,8.27
2023-05-19T02:43:31.581Z,8.27
2023-05-19T02:44:04.145Z,8.27
2023-05-19T02:44:34.717Z,8.27
2023-05-19T02:44:52.071Z,8.27
2023-05-19T02:45:23.487Z,8.27
2023-05-19T02:45:43.980Z,8.27
2023-05-19T02:46:10.940Z,8.27
2023-05-19T02:46:37.236Z,8.27
2023-05-19T02:46:58.565Z,8.27
2023-05-19T02:47:31.450Z,8.27
2023-05-19T02:48:03.165Z,8.27
2023-05-19T02:48:34.588Z,8.22
2023-05-19T02:48:51.229Z,8.22
2023-05-19T02:49:22.593Z,8.22
2023-05-19T02:49:44.238Z,8.22
2023-05-19T02:50:11.416Z,8.22
2023-05-19T02:50:37.252Z,8.22
2023-05-19T02:50:58.914Z,8.22
2023-05-19T02:51:31.599Z,8.22
2023-05-19T02:52:02.641Z,8.11
2023-05-19T02:52:34.637Z,8.11
2023-05-19T02:52:51.034Z,7.46
2023-05-19T02:53:22.480Z,8.11
2023-05-19T02:53:44.087Z,8.11
2023-05-19T02:54:11.105Z,8.11
2023-05-19T02:54:37.034Z,7.46
2023-05-19T02:54:58.586Z,7.46
2023-05-19T02:55:32.033Z,8.11
2023-05-19T02:56:02.698Z,7.46
2023-05-19T02:56:34.838Z,8.11
2023-05-19T02:56:51.041Z,7.36
2023-05-19T02:57:22.595Z,7.46
2023-05-19T02:57:44.060Z,8.11
2023-05-19T02:58:11.057Z,7.36
2023-05-19T02:58:37.005Z,8.11
2023-05-19T02:58:58.630Z,8.11
2023-05-19T02:59:31.513Z,8.11
2023-05-19T03:00:04.861Z,8.11
2023-05-19T03:00:34.755Z,8.00
2023-05-19T03:00:51.323Z,8.00
2023-05-19T03:01:22.537Z,8.00
2023-05-19T03:01:44.146Z,7.05
2023-05-19T03:02:11.150Z,8.00
2023-05-19T03:02:37.143Z,7.14
2023-05-19T03:02:58.793Z,8.00
2023-05-19T03:03:31.641Z,8.00
2023-05-19T03:04:02.688Z,8.00
2023-05-19T03:04:34.766Z,8.00
2023-05-19T03:04:51.152Z,7.14
2023-05-19T03:05:22.941Z,8.00
2023-05-19T03:05:44.253Z,7.05
2023-05-19T03:06:11.445Z,8.00
2023-05-19T03:06:37.055Z,8.00
2023-05-19T03:06:58.645Z,8.00
2023-05-19T03:07:31.530Z,8.00
2023-05-19T03:08:02.534Z,8.00
2023-05-19T03:08:35.255Z,7.33
2023-05-19T03:09:06.541Z,7.33
2023-05-19T03:09:39.098Z,8.00
2023-05-19T03:10:11.987Z,8.00
2023-05-19T03:10:37.185Z,8.00
2023-05-19T03:10:59.088Z,8.00
2023-05-19T03:11:31.638Z,7.33
2023-05-19T03:12:02.653Z,8.00
2023-05-19T03:12:34.659Z,8.00
2023-05-19T03:12:51.169Z,8.00
2023-05-19T03:13:22.500Z,8.00
2023-05-19T03:13:44.071Z,8.00
2023-05-19T03:14:11.020Z,7.88
2023-05-19T03:14:37.036Z,7.88
2023-05-19T03:14:58.511Z,6.91
2023-05-19T03:15:32.719Z,7.88
2023-05-19T03:16:02.716Z,7.88
2023-05-19T03:16:35.087Z,7.88
2023-05-19T03:16:51.102Z,7.88
2023-05-19T03:17:22.610Z,7.10
2023-05-19T03:17:44.247Z,7.20
2023-05-19T03:18:11.293Z,7.88
2023-05-19T03:18:36.948Z,7.88
2023-05-19T03:18:58.814Z,7.88
2023-05-19T03:19:31.765Z,7.88
2023-05-19T03:20:04.784Z,7.88
2023-05-19T03:20:34.956Z,7.88
2023-05-19T03:20:51.545Z,7.88
2023-05-19T03:21:22.833Z,7.88
2023-05-19T03:21:44.239Z,7.00
2023-05-19T03:22:11.273Z,7.88
2023-05-19T03:22:37.156Z,7.88
2023-05-19T03:22:58.792Z,7.88
2023-05-19T03:23:31.820Z,7.88
2023-05-19T03:24:02.949Z,7.88
2023-05-19T03:24:34.764Z,7.88
2023-05-19T03:24:51.256Z,7.88
2023-05-19T03:25:23.047Z,7.88
2023-05-19T03:25:44.266Z,7.88
2023-05-19T03:26:11.294Z,7.88
2023-05-19T03:26:37.849Z,7.88
2023-05-19T03:26:58.867Z,7.88
2023-05-19T03:27:31.760Z,7.88
2023-05-19T03:28:02.901Z,7.88
2023-05-19T03:28:34.912Z,7.88
2023-05-19T03:28:51.252Z,7.88
2023-05-19T03:29:23.293Z,7.88
2023-05-19T03:29:44.200Z,7.88
2023-05-19T03:30:12.426Z,7.88
2023-05-19T03:30:37.975Z,7.88
2023-05-19T03:31:00.344Z,7.88
2023-05-19T03:31:31.687Z,7.88
2023-05-19T03:32:03.225Z,7.88
2023-05-19T03:32:34.873Z,7.88
2023-05-19T03:32:51.368Z,7.88
2023-05-19T03:33:22.998Z,7.88
2023-05-19T03:33:44.458Z,7.77
2023-05-19T03:34:11.846Z,7.77
2023-05-19T03:34:37.193Z,7.77
2023-05-19T03:34:58.812Z,7.77
2023-05-19T03:35:32.276Z,7.77
2023-05-19T03:36:02.781Z,7.77
2023-05-19T03:36:34.946Z,7.77
2023-05-19T03:36:51.277Z,7.77
2023-05-19T03:37:22.743Z,7.77
2023-05-19T03:37:44.312Z,7.77
2023-05-19T03:38:12.949Z,7.72
2023-05-19T03:38:37.246Z,7.72
2023-05-19T03:38:58.802Z,7.72
2023-05-19T03:39:32.034Z,7.72
2023-05-19T03:40:04.434Z,7.72
2023-05-19T03:40:35.039Z,7.72
2023-05-19T03:40:52.189Z,7.72
2023-05-19T03:41:22.919Z,7.72
2023-05-19T03:41:44.226Z,7.72
2023-05-19T03:42:11.249Z,7.72
2023-05-19T03:42:37.207Z,7.72
2023-05-19T03:42:58.814Z,7.72
2023-05-19T03:43:31.837Z,7.72
2023-05-19T03:44:03.013Z,7.72
2023-05-19T03:44:34.814Z,7.72
2023-05-19T03:44:52.342Z,7.72
2023-05-19T03:45:23.872Z,7.72
2023-05-19T03:45:44.328Z,7.72
2023-05-19T03:46:11.292Z,7.72
2023-05-19T03:46:37.184Z,7.72
2023-05-19T03:46:58.784Z,7.01
2023-05-19T03:47:32.506Z,7.72
2023-05-19T03:48:02.977Z,7.72
2023-05-19T03:48:34.857Z,7.72
2023-05-19T03:48:51.159Z,7.77
2023-05-19T03:49:23.217Z,7.77
2023-05-19T03:49:44.149Z,7.77
2023-05-19T03:50:11.863Z,7.77
2023-05-19T03:50:37.232Z,7.77
2023-05-19T03:50:59.131Z,7.77
2023-05-19T03:51:32.106Z,7.77
2023-05-19T03:52:03.014Z,7.07
2023-05-19T03:52:35.809Z,7.77
2023-05-19T03:53:06.751Z,7.77
2023-05-19T03:53:39.077Z,7.77
2023-05-19T03:54:11.369Z,7.77
2023-05-19T03:54:37.586Z,7.77
2023-05-19T03:54:58.816Z,7.77
2023-05-19T03:55:32.118Z,7.77
2023-05-19T03:56:02.844Z,7.88
2023-05-19T03:56:34.956Z,7.88
2023-05-19T03:56:51.256Z,7.88
2023-05-19T03:57:22.681Z,7.88
2023-05-19T03:57:44.229Z,7.88
2023-05-19T03:58:11.559Z,7.88
2023-05-19T03:58:37.550Z,7.88
2023-05-19T03:58:58.837Z,8.00
2023-05-19T03:59:32.757Z,8.00
2023-05-19T04:00:06.638Z,8.00
2023-05-19T04:00:35.217Z,8.00
2023-05-19T04:00:51.583Z,8.00
2023-05-19T04:01:23.336Z,8.00
2023-05-19T04:01:44.148Z,8.00
2023-05-19T04:02:11.310Z,8.11
2023-05-19T04:02:37.365Z,8.11
2023-05-19T04:02:59.185Z,8.11
2023-05-19T04:03:31.988Z,8.11
2023-05-19T04:04:03.115Z,8.11
2023-05-19T04:04:35.536Z,8.11
2023-05-19T04:05:07.631Z,8.11
2023-05-19T04:05:38.849Z,8.11
2023-05-19T04:06:11.328Z,8.11
2023-05-19T04:06:37.501Z,8.11
2023-05-19T04:06:58.814Z,8.22
2023-05-19T04:07:31.934Z,8.22
2023-05-19T04:08:03.028Z,8.22
2023-05-19T04:08:34.927Z,8.22
2023-05-19T04:09:06.795Z,8.22
2023-05-19T04:09:38.932Z,8.22
2023-05-19T04:10:11.764Z,8.22
2023-05-19T04:10:37.234Z,8.22
2023-05-19T04:10:59.287Z,8.22
2023-05-19T04:11:31.749Z,8.22
2023-05-19T04:12:03.181Z,8.27
2023-05-19T04:12:34.758Z,8.27
2023-05-19T04:12:51.235Z,8.27
2023-05-19T04:13:23.132Z,8.27
2023-05-19T04:13:45.183Z,8.27
2023-05-19T04:14:11.338Z,8.27
2023-05-19T04:14:37.421Z,7.45
2023-05-19T04:14:58.918Z,8.27
2023-05-19T04:15:32.942Z,8.27
2023-05-19T04:16:03.077Z,8.27
2023-05-19T04:16:34.758Z,8.27
2023-05-19T04:16:51.141Z,8.27
2023-05-19T04:17:23.317Z,8.27
2023-05-19T04:17:44.436Z,8.27
2023-05-19T04:18:11.394Z,8.27
2023-05-19T04:18:37.351Z,8.27
2023-05-19T04:18:58.875Z,8.27
2023-05-19T04:19:31.922Z,8.27
2023-05-19T04:20:04.522Z,8.27
2023-05-19T04:20:34.924Z,8.27
2023-05-19T04:20:51.694Z,8.27
2023-05-19T04:21:22.855Z,8.27
2023-05-19T04:21:44.669Z,8.27
2023-05-19T04:22:11.535Z,8.27
2023-05-19T04:22:37.243Z,8.27
2023-05-19T04:22:59.096Z,8.27
2023-05-19T04:23:31.730Z,8.27
2023-05-19T04:24:02.866Z,8.27
2023-05-19T04:24:34.818Z,8.27
2023-05-19T04:24:51.545Z,8.27
2023-05-19T04:25:23.349Z,8.27
2023-05-19T04:25:44.263Z,8.27
2023-05-19T04:26:11.342Z,8.27
2023-05-19T04:26:37.254Z,8.27
2023-05-19T04:26:58.931Z,8.27
2023-05-19T04:27:32.336Z,8.27
2023-05-19T04:28:02.998Z,8.27
2023-05-19T04:28:34.785Z,8.27
2023-05-19T04:28:51.674Z,8.27
2023-05-19T04:29:22.687Z,8.27
2023-05-19T04:29:44.531Z,8.27
2023-05-19T04:30:12.355Z,8.27
2023-05-19T04:30:37.344Z,8.27
2023-05-19T04:30:59.248Z,8.27
2023-05-19T04:31:31.910Z,8.27
2023-05-19T04:32:03.083Z,7.45
2023-05-19T04:32:34.892Z,8.27
2023-05-19T04:32:51.593Z,7.64
2023-05-19T04:33:22.733Z,8.27
2023-05-19T04:33:44.237Z,8.27
2023-05-19T04:34:11.341Z,8.27
2023-05-19T04:34:37.226Z,8.27
2023-05-19T04:34:58.902Z,8.27
2023-05-19T04:35:32.325Z,8.38
2023-05-19T04:36:02.887Z,8.38
2023-05-19T04:36:34.795Z,8.38
2023-05-19T04:36:53.225Z,8.38
2023-05-19T04:37:23.004Z,8.38
2023-05-19T04:37:44.444Z,8.38
2023-05-19T04:38:11.385Z,8.38
2023-05-19T04:38:37.569Z,7.67
2023-05-19T04:38:59.282Z,8.38
2023-05-19T04:39:31.972Z,8.38
2023-05-19T04:40:04.756Z,8.38
2023-05-19T04:40:34.861Z,8.38
2023-05-19T04:40:51.688Z,8.38
2023-05-19T04:41:22.935Z,8.50
2023-05-19T04:41:44.339Z,8.50
2023-05-19T04:42:11.256Z,8.50
2023-05-19T04:42:37.340Z,8.50
2023-05-19T04:42:59.578Z,8.50
2023-05-19T04:43:31.844Z,8.50
2023-05-19T04:44:02.789Z,8.50
2023-05-19T04:44:34.785Z,8.61
2023-05-19T04:44:51.253Z,8.61
2023-05-19T04:45:25.506Z,8.61
2023-05-19T04:45:44.445Z,8.61
2023-05-19T04:46:13.388Z,8.61
2023-05-19T04:46:37.246Z,8.61
2023-05-19T04:46:58.790Z,8.61
2023-05-19T04:47:31.954Z,8.61
2023-05-19T04:48:02.999Z,7.63
2023-05-19T04:48:34.853Z,8.61
2023-05-19T04:48:51.257Z,8.03
2023-05-19T04:49:22.771Z,8.61
2023-05-19T04:49:44.344Z,8.61
2023-05-19T04:50:11.841Z,8.61
2023-05-19T04:50:37.141Z,8.61
2023-05-19T04:50:59.227Z,8.61
2023-05-19T04:51:31.938Z,8.06
2023-05-19T04:52:03.343Z,8.06
2023-05-19T04:52:35.082Z,8.72
2023-05-19T04:52:51.208Z,8.72
2023-05-19T04:53:22.597Z,8.72
2023-05-19T04:53:44.166Z,8.72
2023-05-19T04:54:11.774Z,8.72
2023-05-19T04:54:37.314Z,8.72
2023-05-19T04:54:58.805Z,8.72
2023-05-19T04:55:32.352Z,8.72
2023-05-19T04:56:02.945Z,8.72
2023-05-19T04:56:34.787Z,8.72
2023-05-19T04:56:51.368Z,8.72
2023-05-19T04:57:22.711Z,8.72
2023-05-19T04:57:44.185Z,8.72
2023-05-19T04:58:11.686Z,8.72
2023-05-19T04:58:38.051Z,8.72
2023-05-19T04:58:58.639Z,8.72
2023-05-19T04:59:31.840Z,8.72
2023-05-19T05:00:05.176Z,8.72
2023-05-19T05:00:34.903Z,8.72
2023-05-19T05:00:51.560Z,8.21
2023-05-19T05:01:22.971Z,8.77
2023-05-19T05:01:44.304Z,8.77
2023-05-19T05:02:11.397Z,8.77
2023-05-19T05:02:37.452Z,8.77
2023-05-19T05:02:58.908Z,8.77
2023-05-19T05:03:31.779Z,7.59
2023-05-19T05:04:03.447Z,7.08
2023-05-19T05:04:34.804Z,8.77
2023-05-19T05:04:51.228Z,8.21
2023-05-19T05:05:23.698Z,8.77
2023-05-19T05:05:44.309Z,8.77
2023-05-19T05:06:11.363Z,7.94
2023-05-19T05:06:37.140Z,8.77
2023-05-19T05:06:58.681Z,7.74
2023-05-19T05:07:32.667Z,8.77
2023-05-19T05:08:02.845Z,7.74
2023-05-19T05:08:34.891Z,8.77
2023-05-19T05:08:51.320Z,8.77
2023-05-19T05:09:22.668Z,8.77
2023-05-19T05:09:44.276Z,7.82
2023-05-19T05:10:12.269Z,8.77
2023-05-19T05:10:37.391Z,8.03
2023-05-19T05:10:59.302Z,7.94
2023-05-19T05:11:31.741Z,8.77
2023-05-19T05:12:03.139Z,7.74
2023-05-19T05:12:34.914Z,7.74
2023-05-19T05:12:51.274Z,7.74
2023-05-19T05:13:23.086Z,7.87
2023-05-19T05:13:44.322Z,7.94
2023-05-19T05:14:11.401Z,8.88
2023-05-19T05:14:37.658Z,8.88
2023-05-19T05:14:58.973Z,8.88
2023-05-19T05:15:33.022Z,8.88
2023-05-19T05:16:03.070Z,7.87
2023-05-19T05:16:34.891Z,8.15
2023-05-19T05:16:51.613Z,8.88
2023-05-19T05:17:23.057Z,8.88
2023-05-19T05:17:44.204Z,8.88
2023-05-19T05:18:11.503Z,8.29
2023-05-19T05:18:37.308Z,9.00
2023-05-19T05:18:58.985Z,9.00
2023-05-19T05:19:32.016Z,9.00
2023-05-19T05:20:04.840Z,7.50
2023-05-19T05:20:35.297Z,8.38
2023-05-19T05:21:07.013Z,7.50
2023-05-19T05:21:39.150Z,7.56
2023-05-19T05:22:11.463Z,9.00
2023-05-19T05:22:37.548Z,8.29
2023-05-19T05:22:59.108Z,8.21
2023-05-19T05:23:31.949Z,9.00
2023-05-19T05:24:02.950Z,9.00
2023-05-19T05:24:34.913Z,9.00
2023-05-19T05:24:51.537Z,8.08
2023-05-19T05:25:23.208Z,7.56
2023-05-19T05:25:45.283Z,8.38
2023-05-19T05:26:11.513Z,9.11
2023-05-19T05:26:37.223Z,9.11
2023-05-19T05:26:58.946Z,9.11
2023-05-19T05:27:31.831Z,9.11
2023-05-19T05:28:02.929Z,9.11
2023-05-19T05:28:34.786Z,9.11
2023-05-19T05:28:51.384Z,9.11
2023-05-19T05:29:22.772Z,9.11
2023-05-19T05:29:44.168Z,9.11
2023-05-19T05:30:12.696Z,8.51
2023-05-19T05:30:37.523Z,9.11
2023-05-19T05:30:59.237Z,9.11
2023-05-19T05:31:32.003Z,9.11
2023-05-19T05:32:02.942Z,9.11
2023-05-19T05:32:35.123Z,8.33
2023-05-19T05:32:51.331Z,7.82
2023-05-19T05:33:23.087Z,8.42
2023-05-19T05:33:44.413Z,7.63
2023-05-19T05:34:11.783Z,8.51
2023-05-19T05:34:37.366Z,9.11
2023-05-19T05:34:58.851Z,9.22
2023-05-19T05:35:32.613Z,8.73
2023-05-19T05:36:02.914Z,7.82
2023-05-19T05:36:34.845Z,7.95
2023-05-19T05:36:51.313Z,8.19
2023-05-19T05:37:23.209Z,8.34
2023-05-19T05:37:44.310Z,8.34
2023-05-19T05:38:12.816Z,8.46
2023-05-19T05:38:37.331Z,8.05
2023-05-19T05:38:58.883Z,8.26
2023-05-19T05:39:31.997Z,8.26
2023-05-19T05:40:04.595Z,8.19
2023-05-19T05:40:35.051Z,7.51
2023-05-19T05:40:51.641Z,8.12
2023-05-19T05:41:22.811Z,7.39
2023-05-19T05:41:44.521Z,7.82
2023-05-19T05:42:11.648Z,9.22
2023-05-19T05:42:37.415Z,9.27
2023-05-19T05:42:59.074Z,8.78
2023-05-19T05:43:32.431Z,8.52
2023-05-19T05:44:03.262Z,9.27
2023-05-19T05:44:35.251Z,9.27
2023-05-19T05:44:51.394Z,8.18
2023-05-19T05:45:24.020Z,8.18
2023-05-19T05:45:44.752Z,8.78
2023-05-19T05:46:12.992Z,8.18
2023-05-19T05:46:37.584Z,9.27
2023-05-19T05:46:59.010Z,9.27
2023-05-19T05:47:32.331Z,9.38
2023-05-19T05:48:03.183Z,9.38
2023-05-19T05:48:35.005Z,9.38
2023-05-19T05:48:51.510Z,8.82
2023-05-19T05:49:23.035Z,9.50
2023-05-19T05:49:44.489Z,8.87
2023-05-19T05:50:12.001Z,9.50
2023-05-19T05:50:37.801Z,8.22
2023-05-19T05:51:00.308Z,9.05
2023-05-19T05:51:32.576Z,9.50
2023-05-19T05:52:06.285Z,9.50
2023-05-19T05:52:35.442Z,8.35
2023-05-19T05:52:51.458Z,9.05
2023-05-19T05:53:23.003Z,8.45
2023-05-19T05:53:44.512Z,8.78
2023-05-19T05:54:11.801Z,9.50
2023-05-19T05:54:37.673Z,9.50
2023-05-19T05:54:59.092Z,9.08
2023-05-19T05:55:32.899Z,9.61
2023-05-19T05:56:03.702Z,9.61
2023-05-19T05:56:35.644Z,9.72
2023-05-19T05:56:51.550Z,9.72
2023-05-19T05:57:23.040Z,9.72
2023-05-19T05:57:44.536Z,9.72
2023-05-19T05:58:11.911Z,8.48
2023-05-19T05:58:37.826Z,8.90
2023-05-19T05:58:59.108Z,8.76